sensor_id;sensor_type;location;lat;lon;timestamp;temperature;humidity
70154;DHT22;57519;51.494;-2.626;2023-07-31T00:02:04;16.77;96.10
70154;DHT22;57519;51.494;-2.626;2023-07-31T00:04:29;16.79;96.16
70154;DHT22;57519;51.494;-2.626;2023-07-31T00:06:55;16.79;96.24
70154;DHT22;57519;51.494;-2.626;2023-07-31T00:09:20;16.81;96.22
70154;DHT22;57519;51.494;-2.626;2023-07-31T00:11:46;16.77;96.45
70154;DHT22;57519;51.494;-2.626;2023-07-31T00:14:11;16.81;96.65
70154;DHT22;57519;51.494;-2.626;2023-07-31T00:16:36;16.81;96.59
70154;DHT22;57519;51.494;-2.626;2023-07-31T00:19:02;16.77;96.65
70154;DHT22;57519;51.494;-2.626;2023-07-31T00:21:27;16.77;96.73
70154;DHT22;57519;51.494;-2.626;2023-07-31T00:23:53;16.79;96.72
70154;DHT22;57519;51.494;-2.626;2023-07-31T00:26:18;16.76;96.82
70154;DHT22;57519;51.494;-2.626;2023-07-31T00:28:43;16.80;96.90
70154;DHT22;57519;51.494;-2.626;2023-07-31T00:31:09;16.76;97.01
70154;DHT22;57519;51.494;-2.626;2023-07-31T00:33:35;16.79;97.10
70154;DHT22;57519;51.494;-2.626;2023-07-31T00:36:01;16.81;97.04
70154;DHT22;57519;51.494;-2.626;2023-07-31T00:38:27;16.84;96.98
70154;DHT22;57519;51.494;-2.626;2023-07-31T00:40:52;16.84;96.95
70154;DHT22;57519;51.494;-2.626;2023-07-31T00:43:18;16.88;96.89
70154;DHT22;57519;51.494;-2.626;2023-07-31T00:45:44;16.83;97.04
70154;DHT22;57519;51.494;-2.626;2023-07-31T00:48:09;16.87;97.05
70154;DHT22;57519;51.494;-2.626;2023-07-31T00:50:35;16.87;97.08
70154;DHT22;57519;51.494;-2.626;2023-07-31T00:53:01;16.87;97.04
70154;DHT22;57519;51.494;-2.626;2023-07-31T00:55:26;16.91;97.00
70154;DHT22;57519;51.494;-2.626;2023-07-31T00:57:52;16.85;97.08
70154;DHT22;57519;51.494;-2.626;2023-07-31T01:00:18;16.90;97.32
70154;DHT22;57519;51.494;-2.626;2023-07-31T01:02:44;16.91;97.22
70154;DHT22;57519;51.494;-2.626;2023-07-31T01:05:09;16.87;97.27
70154;DHT22;57519;51.494;-2.626;2023-07-31T01:10:23;16.84;97.43
70154;DHT22;57519;51.494;-2.626;2023-07-31T01:12:52;16.85;97.53
70154;DHT22;57519;51.494;-2.626;2023-07-31T01:15:18;16.87;97.43
70154;DHT22;57519;51.494;-2.626;2023-07-31T01:17:44;16.88;97.47
70154;DHT22;57519;51.494;-2.626;2023-07-31T01:20:22;16.85;97.49
70154;DHT22;57519;51.494;-2.626;2023-07-31T01:22:59;16.87;97.52
70154;DHT22;57519;51.494;-2.626;2023-07-31T01:28:14;16.83;97.77
70154;DHT22;57519;51.494;-2.626;2023-07-31T01:30:44;16.85;97.89
70154;DHT22;57519;51.494;-2.626;2023-07-31T01:33:11;16.85;97.90
70154;DHT22;57519;51.494;-2.626;2023-07-31T01:35:37;16.85;97.83
70154;DHT22;57519;51.494;-2.626;2023-07-31T01:38:04;16.84;97.89
70154;DHT22;57519;51.494;-2.626;2023-07-31T01:40:30;16.83;97.98
70154;DHT22;57519;51.494;-2.626;2023-07-31T01:42:55;16.84;98.01
70154;DHT22;57519;51.494;-2.626;2023-07-31T01:45:20;16.90;98.02
70154;DHT22;57519;51.494;-2.626;2023-07-31T01:47:46;16.91;97.90
70154;DHT22;57519;51.494;-2.626;2023-07-31T01:50:12;16.92;98.04
70154;DHT22;57519;51.494;-2.626;2023-07-31T01:52:37;16.94;98.06
70154;DHT22;57519;51.494;-2.626;2023-07-31T01:55:03;16.97;98.04
70154;DHT22;57519;51.494;-2.626;2023-07-31T01:57:28;17.06;98.02
70154;DHT22;57519;51.494;-2.626;2023-07-31T01:59:54;17.08;97.84
70154;DHT22;57519;51.494;-2.626;2023-07-31T02:02:20;17.07;97.73
70154;DHT22;57519;51.494;-2.626;2023-07-31T02:04:46;17.07;97.81
70154;DHT22;57519;51.494;-2.626;2023-07-31T02:07:11;17.18;97.64
70154;DHT22;57519;51.494;-2.626;2023-07-31T02:09:37;17.25;97.38
70154;DHT22;57519;51.494;-2.626;2023-07-31T02:12:02;17.28;97.53
70154;DHT22;57519;51.494;-2.626;2023-07-31T02:14:28;17.28;97.48
70154;DHT22;57519;51.494;-2.626;2023-07-31T02:16:53;17.29;97.39
70154;DHT22;57519;51.494;-2.626;2023-07-31T02:19:19;17.29;97.48
70154;DHT22;57519;51.494;-2.626;2023-07-31T02:21:44;17.31;97.14
70154;DHT22;57519;51.494;-2.626;2023-07-31T02:24:10;17.28;97.04
70154;DHT22;57519;51.494;-2.626;2023-07-31T02:26:35;17.27;96.74
70154;DHT22;57519;51.494;-2.626;2023-07-31T02:29:01;17.24;96.90
70154;DHT22;57519;51.494;-2.626;2023-07-31T02:31:26;17.19;97.04
70154;DHT22;57519;51.494;-2.626;2023-07-31T02:33:52;17.18;97.00
70154;DHT22;57519;51.494;-2.626;2023-07-31T02:36:17;17.17;97.15
70154;DHT22;57519;51.494;-2.626;2023-07-31T02:38:42;17.17;97.03
70154;DHT22;57519;51.494;-2.626;2023-07-31T02:41:08;17.08;96.87
70154;DHT22;57519;51.494;-2.626;2023-07-31T02:43:33;17.06;96.66
70154;DHT22;57519;51.494;-2.626;2023-07-31T02:45:59;17.06;96.72
70154;DHT22;57519;51.494;-2.626;2023-07-31T02:48:25;17.06;96.54
70154;DHT22;57519;51.494;-2.626;2023-07-31T02:50:50;17.04;96.47
70154;DHT22;57519;51.494;-2.626;2023-07-31T02:53:16;17.03;96.08
70154;DHT22;57519;51.494;-2.626;2023-07-31T02:55:41;17.03;95.80
70154;DHT22;57519;51.494;-2.626;2023-07-31T02:58:06;17.00;96.15
70154;DHT22;57519;51.494;-2.626;2023-07-31T03:00:32;16.98;96.05
70154;DHT22;57519;51.494;-2.626;2023-07-31T03:02:57;16.97;96.22
70154;DHT22;57519;51.494;-2.626;2023-07-31T03:05:22;17.00;96.31
70154;DHT22;57519;51.494;-2.626;2023-07-31T03:07:48;16.95;96.21
70154;DHT22;57519;51.494;-2.626;2023-07-31T03:10:13;16.98;96.21
70154;DHT22;57519;51.494;-2.626;2023-07-31T03:12:40;16.94;96.41
70154;DHT22;57519;51.494;-2.626;2023-07-31T03:15:06;16.94;96.51
70154;DHT22;57519;51.494;-2.626;2023-07-31T03:17:31;16.95;96.42
70154;DHT22;57519;51.494;-2.626;2023-07-31T03:19:57;16.90;96.21
70154;DHT22;57519;51.494;-2.626;2023-07-31T03:22:22;16.90;96.24
70154;DHT22;57519;51.494;-2.626;2023-07-31T03:24:47;16.87;96.19
70154;DHT22;57519;51.494;-2.626;2023-07-31T03:27:13;16.91;96.00
70154;DHT22;57519;51.494;-2.626;2023-07-31T03:29:38;16.92;96.29
70154;DHT22;57519;51.494;-2.626;2023-07-31T03:32:04;16.81;96.24
70154;DHT22;57519;51.494;-2.626;2023-07-31T03:34:30;16.76;96.39
70154;DHT22;57519;51.494;-2.626;2023-07-31T03:36:57;16.70;96.03
70154;DHT22;57519;51.494;-2.626;2023-07-31T03:39:23;16.64;96.14
70154;DHT22;57519;51.494;-2.626;2023-07-31T03:41:48;16.59;96.04
70154;DHT22;57519;51.494;-2.626;2023-07-31T03:44:13;16.59;96.31
70154;DHT22;57519;51.494;-2.626;2023-07-31T03:46:39;16.57;96.21
70154;DHT22;57519;51.494;-2.626;2023-07-31T03:49:04;16.56;95.64
70154;DHT22;57519;51.494;-2.626;2023-07-31T03:51:30;16.53;95.75
70154;DHT22;57519;51.494;-2.626;2023-07-31T03:53:55;16.50;95.72
70154;DHT22;57519;51.494;-2.626;2023-07-31T03:56:21;16.46;95.84
70154;DHT22;57519;51.494;-2.626;2023-07-31T03:58:46;16.49;95.91
70154;DHT22;57519;51.494;-2.626;2023-07-31T04:01:11;16.42;95.95
70154;DHT22;57519;51.494;-2.626;2023-07-31T04:03:37;16.45;96.08
70154;DHT22;57519;51.494;-2.626;2023-07-31T04:06:02;16.43;96.19
70154;DHT22;57519;51.494;-2.626;2023-07-31T04:08:28;16.41;96.34
70154;DHT22;57519;51.494;-2.626;2023-07-31T04:10:53;16.34;96.33
70154;DHT22;57519;51.494;-2.626;2023-07-31T04:13:18;16.41;96.51
70154;DHT22;57519;51.494;-2.626;2023-07-31T04:15:51;16.38;96.46
70154;DHT22;57519;51.494;-2.626;2023-07-31T04:18:16;16.33;96.82
70154;DHT22;57519;51.494;-2.626;2023-07-31T04:20:42;16.36;97.07
70154;DHT22;57519;51.494;-2.626;2023-07-31T04:23:07;16.32;97.14
70154;DHT22;57519;51.494;-2.626;2023-07-31T04:25:33;16.30;97.19
70154;DHT22;57519;51.494;-2.626;2023-07-31T04:28:00;16.32;97.11
70154;DHT22;57519;51.494;-2.626;2023-07-31T04:30:25;16.36;97.08
70154;DHT22;57519;51.494;-2.626;2023-07-31T04:32:51;16.38;97.17
70154;DHT22;57519;51.494;-2.626;2023-07-31T04:35:16;16.39;97.28
70154;DHT22;57519;51.494;-2.626;2023-07-31T04:37:41;16.38;97.29
70154;DHT22;57519;51.494;-2.626;2023-07-31T04:40:07;16.39;97.38
70154;DHT22;57519;51.494;-2.626;2023-07-31T04:42:33;16.41;97.34
70154;DHT22;57519;51.494;-2.626;2023-07-31T04:44:59;16.39;97.00
70154;DHT22;57519;51.494;-2.626;2023-07-31T04:47:25;16.45;96.80
70154;DHT22;57519;51.494;-2.626;2023-07-31T04:49:50;16.42;96.74
70154;DHT22;57519;51.494;-2.626;2023-07-31T04:52:16;16.41;96.64
70154;DHT22;57519;51.494;-2.626;2023-07-31T04:54:41;16.41;96.70
70154;DHT22;57519;51.494;-2.626;2023-07-31T04:57:06;16.41;96.83
70154;DHT22;57519;51.494;-2.626;2023-07-31T04:59:32;16.42;96.78
70154;DHT22;57519;51.494;-2.626;2023-07-31T05:01:57;16.42;96.94
70154;DHT22;57519;51.494;-2.626;2023-07-31T05:04:23;16.45;97.06
70154;DHT22;57519;51.494;-2.626;2023-07-31T05:06:48;16.48;97.09
70154;DHT22;57519;51.494;-2.626;2023-07-31T05:09:13;16.49;97.14
70154;DHT22;57519;51.494;-2.626;2023-07-31T05:11:39;16.49;97.16
70154;DHT22;57519;51.494;-2.626;2023-07-31T05:14:05;16.55;97.02
70154;DHT22;57519;51.494;-2.626;2023-07-31T05:16:31;16.53;97.13
70154;DHT22;57519;51.494;-2.626;2023-07-31T05:18:56;16.62;97.32
70154;DHT22;57519;51.494;-2.626;2023-07-31T05:21:22;16.66;97.25
70154;DHT22;57519;51.494;-2.626;2023-07-31T05:23:47;16.71;96.90
70154;DHT22;57519;51.494;-2.626;2023-07-31T05:26:13;16.70;96.65
70154;DHT22;57519;51.494;-2.626;2023-07-31T05:28:38;16.69;96.70
70154;DHT22;57519;51.494;-2.626;2023-07-31T05:31:04;16.64;96.43
70154;DHT22;57519;51.494;-2.626;2023-07-31T05:33:30;16.63;96.38
70154;DHT22;57519;51.494;-2.626;2023-07-31T05:35:56;16.60;96.35
70154;DHT22;57519;51.494;-2.626;2023-07-31T05:38:22;16.59;96.54
70154;DHT22;57519;51.494;-2.626;2023-07-31T05:40:47;16.59;96.66
70154;DHT22;57519;51.494;-2.626;2023-07-31T05:43:13;16.60;96.64
70154;DHT22;57519;51.494;-2.626;2023-07-31T05:45:39;16.60;96.74
70154;DHT22;57519;51.494;-2.626;2023-07-31T05:48:05;16.62;96.81
70154;DHT22;57519;51.494;-2.626;2023-07-31T05:50:31;16.63;96.87
70154;DHT22;57519;51.494;-2.626;2023-07-31T05:52:56;16.64;96.96
70154;DHT22;57519;51.494;-2.626;2023-07-31T05:55:22;16.69;96.97
70154;DHT22;57519;51.494;-2.626;2023-07-31T05:57:48;16.69;96.54
70154;DHT22;57519;51.494;-2.626;2023-07-31T06:00:14;16.73;96.30
70154;DHT22;57519;51.494;-2.626;2023-07-31T06:02:39;16.79;96.42
70154;DHT22;57519;51.494;-2.626;2023-07-31T06:05:05;16.83;95.92
70154;DHT22;57519;51.494;-2.626;2023-07-31T06:07:31;16.83;95.37
70154;DHT22;57519;51.494;-2.626;2023-07-31T06:09:57;16.90;95.14
70154;DHT22;57519;51.494;-2.626;2023-07-31T06:12:28;16.87;95.08
70154;DHT22;57519;51.494;-2.626;2023-07-31T06:14:54;16.90;95.11
70154;DHT22;57519;51.494;-2.626;2023-07-31T06:17:19;16.85;94.90
70154;DHT22;57519;51.494;-2.626;2023-07-31T06:19:44;16.83;95.15
70154;DHT22;57519;51.494;-2.626;2023-07-31T06:22:10;16.84;95.29
70154;DHT22;57519;51.494;-2.626;2023-07-31T06:24:35;16.80;95.63
70154;DHT22;57519;51.494;-2.626;2023-07-31T06:27:01;16.87;95.41
70154;DHT22;57519;51.494;-2.626;2023-07-31T06:29:29;16.87;95.35
70154;DHT22;57519;51.494;-2.626;2023-07-31T06:31:54;16.90;94.72
70154;DHT22;57519;51.494;-2.626;2023-07-31T06:34:20;16.97;94.81
70154;DHT22;57519;51.494;-2.626;2023-07-31T06:36:45;16.98;94.94
70154;DHT22;57519;51.494;-2.626;2023-07-31T06:39:11;17.01;94.77
70154;DHT22;57519;51.494;-2.626;2023-07-31T06:41:37;17.04;94.65
70154;DHT22;57519;51.494;-2.626;2023-07-31T06:44:03;17.03;94.63
70154;DHT22;57519;51.494;-2.626;2023-07-31T06:46:28;17.14;94.37
70154;DHT22;57519;51.494;-2.626;2023-07-31T06:48:54;17.15;94.41
70154;DHT22;57519;51.494;-2.626;2023-07-31T06:51:20;17.31;94.04
70154;DHT22;57519;51.494;-2.626;2023-07-31T06:53:45;17.45;93.64
70154;DHT22;57519;51.494;-2.626;2023-07-31T06:56:10;17.53;93.15
70154;DHT22;57519;51.494;-2.626;2023-07-31T06:58:36;17.57;92.94
70154;DHT22;57519;51.494;-2.626;2023-07-31T07:01:01;17.59;92.79
70154;DHT22;57519;51.494;-2.626;2023-07-31T07:03:27;17.70;91.80
70154;DHT22;57519;51.494;-2.626;2023-07-31T07:05:52;17.63;91.03
70154;DHT22;57519;51.494;-2.626;2023-07-31T07:08:18;17.66;90.69
70154;DHT22;57519;51.494;-2.626;2023-07-31T07:10:43;17.46;90.25
70154;DHT22;57519;51.494;-2.626;2023-07-31T07:13:09;17.45;91.48
70154;DHT22;57519;51.494;-2.626;2023-07-31T07:15:34;17.42;91.36
70154;DHT22;57519;51.494;-2.626;2023-07-31T07:18:00;17.53;91.35
70154;DHT22;57519;51.494;-2.626;2023-07-31T07:20:26;17.55;91.44
70154;DHT22;57519;51.494;-2.626;2023-07-31T07:22:51;17.50;91.23
70154;DHT22;57519;51.494;-2.626;2023-07-31T07:25:16;17.62;90.72
70154;DHT22;57519;51.494;-2.626;2023-07-31T07:27:42;17.70;90.48
70154;DHT22;57519;51.494;-2.626;2023-07-31T07:30:07;17.86;89.30
70154;DHT22;57519;51.494;-2.626;2023-07-31T07:32:33;17.91;89.18
70154;DHT22;57519;51.494;-2.626;2023-07-31T07:34:59;17.94;89.77
70154;DHT22;57519;51.494;-2.626;2023-07-31T07:37:24;17.80;89.52
70154;DHT22;57519;51.494;-2.626;2023-07-31T07:39:50;17.93;89.69
70154;DHT22;57519;51.494;-2.626;2023-07-31T07:42:15;17.91;89.89
70154;DHT22;57519;51.494;-2.626;2023-07-31T07:44:41;17.86;90.19
70154;DHT22;57519;51.494;-2.626;2023-07-31T07:47:06;17.73;88.59
70154;DHT22;57519;51.494;-2.626;2023-07-31T07:49:33;17.67;89.15
70154;DHT22;57519;51.494;-2.626;2023-07-31T07:51:59;17.53;89.31
70154;DHT22;57519;51.494;-2.626;2023-07-31T07:54:25;17.49;89.53
70154;DHT22;57519;51.494;-2.626;2023-07-31T07:56:50;17.50;88.92
70154;DHT22;57519;51.494;-2.626;2023-07-31T07:59:15;17.52;88.53
70154;DHT22;57519;51.494;-2.626;2023-07-31T08:01:41;17.46;88.84
70154;DHT22;57519;51.494;-2.626;2023-07-31T08:04:06;17.40;88.06
70154;DHT22;57519;51.494;-2.626;2023-07-31T08:06:32;17.38;88.29
70154;DHT22;57519;51.494;-2.626;2023-07-31T08:08:57;17.24;89.11
70154;DHT22;57519;51.494;-2.626;2023-07-31T08:11:23;17.15;89.71
70154;DHT22;57519;51.494;-2.626;2023-07-31T08:13:49;17.08;90.57
70154;DHT22;57519;51.494;-2.626;2023-07-31T08:16:15;16.97;90.65
70154;DHT22;57519;51.494;-2.626;2023-07-31T08:18:40;17.04;91.14
70154;DHT22;57519;51.494;-2.626;2023-07-31T08:21:07;17.18;91.23
70154;DHT22;57519;51.494;-2.626;2023-07-31T08:23:33;17.29;90.86
70154;DHT22;57519;51.494;-2.626;2023-07-31T08:25:58;17.46;90.70
70154;DHT22;57519;51.494;-2.626;2023-07-31T08:28:23;17.67;89.95
70154;DHT22;57519;51.494;-2.626;2023-07-31T08:30:49;17.76;90.52
70154;DHT22;57519;51.494;-2.626;2023-07-31T08:33:15;17.80;90.27
70154;DHT22;57519;51.494;-2.626;2023-07-31T08:35:41;17.83;89.78
70154;DHT22;57519;51.494;-2.626;2023-07-31T08:38:06;18.05;89.19
70154;DHT22;57519;51.494;-2.626;2023-07-31T08:40:32;18.14;88.26
70154;DHT22;57519;51.494;-2.626;2023-07-31T08:43:00;18.13;87.34
70154;DHT22;57519;51.494;-2.626;2023-07-31T08:45:28;18.10;86.83
70154;DHT22;57519;51.494;-2.626;2023-07-31T08:47:55;18.03;85.30
70154;DHT22;57519;51.494;-2.626;2023-07-31T08:50:21;18.17;86.20
70154;DHT22;57519;51.494;-2.626;2023-07-31T08:52:49;18.21;85.46
70154;DHT22;57519;51.494;-2.626;2023-07-31T08:55:14;18.45;84.45
70154;DHT22;57519;51.494;-2.626;2023-07-31T08:57:41;18.77;83.83
70154;DHT22;57519;51.494;-2.626;2023-07-31T09:00:08;18.88;82.94
70154;DHT22;57519;51.494;-2.626;2023-07-31T09:05:07;18.61;83.27
70154;DHT22;57519;51.494;-2.626;2023-07-31T09:07:36;18.62;84.23
70154;DHT22;57519;51.494;-2.626;2023-07-31T09:10:03;18.76;83.71
70154;DHT22;57519;51.494;-2.626;2023-07-31T09:12:29;18.82;82.92
70154;DHT22;57519;51.494;-2.626;2023-07-31T09:14:58;18.58;84.50
70154;DHT22;57519;51.494;-2.626;2023-07-31T09:17:31;18.30;85.19
70154;DHT22;57519;51.494;-2.626;2023-07-31T09:19:57;17.87;84.80
70154;DHT22;57519;51.494;-2.626;2023-07-31T09:22:35;17.87;86.11
70154;DHT22;57519;51.494;-2.626;2023-07-31T09:25:17;17.93;85.64
70154;DHT22;57519;51.494;-2.626;2023-07-31T09:30:16;18.56;81.63
70154;DHT22;57519;51.494;-2.626;2023-07-31T09:32:43;18.63;81.01
70154;DHT22;57519;51.494;-2.626;2023-07-31T09:35:30;18.79;81.09
70154;DHT22;57519;51.494;-2.626;2023-07-31T09:38:01;18.89;80.64
70154;DHT22;57519;51.494;-2.626;2023-07-31T09:40:36;19.02;79.15
70154;DHT22;57519;51.494;-2.626;2023-07-31T09:43:03;19.09;78.61
70154;DHT22;57519;51.494;-2.626;2023-07-31T09:45:29;19.14;78.41
70154;DHT22;57519;51.494;-2.626;2023-07-31T09:47:56;19.17;78.44
70154;DHT22;57519;51.494;-2.626;2023-07-31T09:50:23;19.09;78.69
70154;DHT22;57519;51.494;-2.626;2023-07-31T09:52:49;19.16;78.64
70154;DHT22;57519;51.494;-2.626;2023-07-31T09:55:15;19.00;78.30
70154;DHT22;57519;51.494;-2.626;2023-07-31T09:57:44;19.43;78.89
70154;DHT22;57519;51.494;-2.626;2023-07-31T10:00:10;18.95;78.97
70154;DHT22;57519;51.494;-2.626;2023-07-31T10:02:37;18.62;80.01
70154;DHT22;57519;51.494;-2.626;2023-07-31T10:05:03;18.27;81.00
70154;DHT22;57519;51.494;-2.626;2023-07-31T10:07:30;18.03;81.99
70154;DHT22;57519;51.494;-2.626;2023-07-31T10:10:00;17.97;81.12
70154;DHT22;57519;51.494;-2.626;2023-07-31T10:12:27;18.18;80.24
70154;DHT22;57519;51.494;-2.626;2023-07-31T10:14:55;18.01;79.59
70154;DHT22;57519;51.494;-2.626;2023-07-31T10:17:22;18.03;80.40
70154;DHT22;57519;51.494;-2.626;2023-07-31T10:19:49;18.18;80.46
70154;DHT22;57519;51.494;-2.626;2023-07-31T10:22:15;18.13;79.87
70154;DHT22;57519;51.494;-2.626;2023-07-31T10:24:45;18.28;79.94
70154;DHT22;57519;51.494;-2.626;2023-07-31T10:27:11;18.49;80.13
70154;DHT22;57519;51.494;-2.626;2023-07-31T10:29:38;18.45;79.15
70154;DHT22;57519;51.494;-2.626;2023-07-31T10:32:05;18.45;79.58
70154;DHT22;57519;51.494;-2.626;2023-07-31T10:34:35;18.40;80.25
70154;DHT22;57519;51.494;-2.626;2023-07-31T10:40:11;18.27;80.14
70154;DHT22;57519;51.494;-2.626;2023-07-31T10:42:45;18.20;80.54
70154;DHT22;57519;51.494;-2.626;2023-07-31T10:45:12;18.00;80.40
70154;DHT22;57519;51.494;-2.626;2023-07-31T10:47:42;18.07;80.68
70154;DHT22;57519;51.494;-2.626;2023-07-31T10:50:26;18.15;81.12
70154;DHT22;57519;51.494;-2.626;2023-07-31T10:52:54;18.13;80.15
70154;DHT22;57519;51.494;-2.626;2023-07-31T10:55:42;18.17;80.79
70154;DHT22;57519;51.494;-2.626;2023-07-31T10:58:12;18.27;80.74
70154;DHT22;57519;51.494;-2.626;2023-07-31T11:00:39;18.28;80.55
70154;DHT22;57519;51.494;-2.626;2023-07-31T11:03:18;18.28;80.18
70154;DHT22;57519;51.494;-2.626;2023-07-31T11:06:02;18.34;80.03
70154;DHT22;57519;51.494;-2.626;2023-07-31T11:08:41;18.25;79.90
70154;DHT22;57519;51.494;-2.626;2023-07-31T11:11:18;18.17;79.80
70154;DHT22;57519;51.494;-2.626;2023-07-31T11:13:48;18.21;80.67
70154;DHT22;57519;51.494;-2.626;2023-07-31T11:16:24;18.21;80.72
70154;DHT22;57519;51.494;-2.626;2023-07-31T11:18:50;17.96;81.24
70154;DHT22;57519;51.494;-2.626;2023-07-31T11:21:25;17.89;82.10
70154;DHT22;57519;51.494;-2.626;2023-07-31T11:23:53;17.82;82.20
70154;DHT22;57519;51.494;-2.626;2023-07-31T11:26:19;17.79;82.44
70154;DHT22;57519;51.494;-2.626;2023-07-31T11:28:48;17.67;82.70
70154;DHT22;57519;51.494;-2.626;2023-07-31T11:31:14;17.75;83.75
70154;DHT22;57519;51.494;-2.626;2023-07-31T11:33:39;17.76;84.12
70154;DHT22;57519;51.494;-2.626;2023-07-31T11:36:05;17.59;84.43
70154;DHT22;57519;51.494;-2.626;2023-07-31T11:38:32;17.52;84.10
70154;DHT22;57519;51.494;-2.626;2023-07-31T11:41:03;17.65;84.25
70154;DHT22;57519;51.494;-2.626;2023-07-31T11:43:29;17.84;83.88
70154;DHT22;57519;51.494;-2.626;2023-07-31T11:45:56;17.80;83.94
70154;DHT22;57519;51.494;-2.626;2023-07-31T11:48:23;17.83;84.35
70154;DHT22;57519;51.494;-2.626;2023-07-31T11:50:50;17.53;84.48
70154;DHT22;57519;51.494;-2.626;2023-07-31T11:53:17;17.49;85.16
70154;DHT22;57519;51.494;-2.626;2023-07-31T11:55:43;17.38;85.76
70154;DHT22;57519;51.494;-2.626;2023-07-31T11:58:09;17.34;86.53
70154;DHT22;57519;51.494;-2.626;2023-07-31T12:00:35;17.40;86.62
70154;DHT22;57519;51.494;-2.626;2023-07-31T12:03:01;17.24;87.33
70154;DHT22;57519;51.494;-2.626;2023-07-31T12:05:26;17.45;87.82
70154;DHT22;57519;51.494;-2.626;2023-07-31T12:07:53;17.42;88.01
70154;DHT22;57519;51.494;-2.626;2023-07-31T12:10:24;17.48;88.54
70154;DHT22;57519;51.494;-2.626;2023-07-31T12:13:06;17.32;88.58
70154;DHT22;57519;51.494;-2.626;2023-07-31T12:15:36;17.11;89.47
70154;DHT22;57519;51.494;-2.626;2023-07-31T12:18:10;17.08;89.52
70154;DHT22;57519;51.494;-2.626;2023-07-31T12:20:41;17.31;89.35
70154;DHT22;57519;51.494;-2.626;2023-07-31T12:23:07;17.22;88.56
70154;DHT22;57519;51.494;-2.626;2023-07-31T12:25:33;17.17;88.98
70154;DHT22;57519;51.494;-2.626;2023-07-31T12:28:05;17.04;88.97
70154;DHT22;57519;51.494;-2.626;2023-07-31T12:30:38;16.92;89.73
70154;DHT22;57519;51.494;-2.626;2023-07-31T12:33:14;16.91;89.98
70154;DHT22;57519;51.494;-2.626;2023-07-31T12:35:47;16.80;89.60
70154;DHT22;57519;51.494;-2.626;2023-07-31T12:38:13;16.87;90.20
70154;DHT22;57519;51.494;-2.626;2023-07-31T12:40:40;16.91;89.56
70154;DHT22;57519;51.494;-2.626;2023-07-31T12:43:07;16.94;89.92
70154;DHT22;57519;51.494;-2.626;2023-07-31T12:45:33;16.95;89.82
70154;DHT22;57519;51.494;-2.626;2023-07-31T12:47:59;16.91;89.53
70154;DHT22;57519;51.494;-2.626;2023-07-31T12:50:25;16.97;89.51
70154;DHT22;57519;51.494;-2.626;2023-07-31T12:52:52;17.06;89.65
70154;DHT22;57519;51.494;-2.626;2023-07-31T12:55:18;17.17;89.06
70154;DHT22;57519;51.494;-2.626;2023-07-31T12:57:44;17.19;88.45
70154;DHT22;57519;51.494;-2.626;2023-07-31T13:00:10;17.38;87.35
70154;DHT22;57519;51.494;-2.626;2023-07-31T13:02:35;17.32;86.83
70154;DHT22;57519;51.494;-2.626;2023-07-31T13:05:01;17.59;86.57
70154;DHT22;57519;51.494;-2.626;2023-07-31T13:07:26;17.69;86.99
70154;DHT22;57519;51.494;-2.626;2023-07-31T13:09:52;17.82;87.06
70154;DHT22;57519;51.494;-2.626;2023-07-31T13:12:17;17.83;87.03
70154;DHT22;57519;51.494;-2.626;2023-07-31T13:14:43;18.07;85.79
70154;DHT22;57519;51.494;-2.626;2023-07-31T13:17:09;18.66;85.23
70154;DHT22;57519;51.494;-2.626;2023-07-31T13:19:34;18.85;83.07
70154;DHT22;57519;51.494;-2.626;2023-07-31T13:21:59;18.80;83.32
70154;DHT22;57519;51.494;-2.626;2023-07-31T13:24:25;18.63;82.98
70154;DHT22;57519;51.494;-2.626;2023-07-31T13:26:50;18.31;83.76
70154;DHT22;57519;51.494;-2.626;2023-07-31T13:29:16;18.56;84.03
70154;DHT22;57519;51.494;-2.626;2023-07-31T13:31:41;19.00;83.37
70154;DHT22;57519;51.494;-2.626;2023-07-31T13:34:07;19.14;83.30
70154;DHT22;57519;51.494;-2.626;2023-07-31T13:36:32;19.16;82.97
70154;DHT22;57519;51.494;-2.626;2023-07-31T13:38:59;19.37;83.01
70154;DHT22;57519;51.494;-2.626;2023-07-31T13:41:24;19.69;81.86
70154;DHT22;57519;51.494;-2.626;2023-07-31T13:43:50;19.48;81.15
70154;DHT22;57519;51.494;-2.626;2023-07-31T13:46:15;19.39;79.48
70154;DHT22;57519;51.494;-2.626;2023-07-31T13:48:41;19.23;80.09
70154;DHT22;57519;51.494;-2.626;2023-07-31T13:51:06;19.47;77.98
70154;DHT22;57519;51.494;-2.626;2023-07-31T13:53:31;19.68;77.39
70154;DHT22;57519;51.494;-2.626;2023-07-31T13:55:57;19.85;78.09
70154;DHT22;57519;51.494;-2.626;2023-07-31T13:58:22;19.95;76.42
70154;DHT22;57519;51.494;-2.626;2023-07-31T14:00:48;20.08;75.86
70154;DHT22;57519;51.494;-2.626;2023-07-31T14:03:13;20.14;75.96
70154;DHT22;57519;51.494;-2.626;2023-07-31T14:05:39;20.36;75.28
70154;DHT22;57519;51.494;-2.626;2023-07-31T14:08:04;20.43;74.61
70154;DHT22;57519;51.494;-2.626;2023-07-31T14:10:30;20.29;75.67
70154;DHT22;57519;51.494;-2.626;2023-07-31T14:12:55;20.06;74.51
70154;DHT22;57519;51.494;-2.626;2023-07-31T14:15:21;19.64;74.69
70154;DHT22;57519;51.494;-2.626;2023-07-31T14:17:46;19.90;73.60
70154;DHT22;57519;51.494;-2.626;2023-07-31T14:20:12;19.89;73.00
70154;DHT22;57519;51.494;-2.626;2023-07-31T14:22:37;20.05;73.24
70154;DHT22;57519;51.494;-2.626;2023-07-31T14:25:03;20.30;72.70
70154;DHT22;57519;51.494;-2.626;2023-07-31T14:27:29;20.16;71.91
70154;DHT22;57519;51.494;-2.626;2023-07-31T14:29:54;20.22;73.41
70154;DHT22;57519;51.494;-2.626;2023-07-31T14:32:21;20.57;71.89
70154;DHT22;57519;51.494;-2.626;2023-07-31T14:34:47;20.99;71.59
70154;DHT22;57519;51.494;-2.626;2023-07-31T14:37:12;20.61;70.70
70154;DHT22;57519;51.494;-2.626;2023-07-31T14:39:37;20.75;71.22
70154;DHT22;57519;51.494;-2.626;2023-07-31T14:42:03;21.12;70.91
70154;DHT22;57519;51.494;-2.626;2023-07-31T14:44:28;21.40;71.07
70154;DHT22;57519;51.494;-2.626;2023-07-31T14:46:54;21.70;70.22
70154;DHT22;57519;51.494;-2.626;2023-07-31T14:49:19;21.50;69.95
70154;DHT22;57519;51.494;-2.626;2023-07-31T14:51:45;21.15;70.75
70154;DHT22;57519;51.494;-2.626;2023-07-31T14:54:10;21.26;70.43
70154;DHT22;57519;51.494;-2.626;2023-07-31T14:56:36;21.20;70.92
70154;DHT22;57519;51.494;-2.626;2023-07-31T14:59:01;20.96;70.84
70154;DHT22;57519;51.494;-2.626;2023-07-31T15:01:26;21.02;70.42
70154;DHT22;57519;51.494;-2.626;2023-07-31T15:03:52;20.37;71.18
70154;DHT22;57519;51.494;-2.626;2023-07-31T15:06:17;20.23;71.56
70154;DHT22;57519;51.494;-2.626;2023-07-31T15:08:43;20.55;71.75
70154;DHT22;57519;51.494;-2.626;2023-07-31T15:11:09;20.03;72.05
70154;DHT22;57519;51.494;-2.626;2023-07-31T15:13:35;19.95;72.33
70154;DHT22;57519;51.494;-2.626;2023-07-31T15:16:00;20.02;72.40
70154;DHT22;57519;51.494;-2.626;2023-07-31T15:18:25;19.93;73.75
70154;DHT22;57519;51.494;-2.626;2023-07-31T15:20:51;20.17;73.27
70154;DHT22;57519;51.494;-2.626;2023-07-31T15:23:18;19.90;73.50
70154;DHT22;57519;51.494;-2.626;2023-07-31T15:25:43;19.89;74.16